UKV5066 ENML-ENVA
Flight info
| Callsign | UKV5066 |
|---|---|
| Flight time | 0h 27m |
| Altitude | 27000 |
| Route | NELSU |
| Aircraft | E190/M-SDE3GILORVW/S |
Departure
| Time | 2026-04-27 19:32 |
|---|---|
| Airport | Molde Airport, Årø (ENML) |
Arrival
| Time | 2026-04-27 20:00 |
|---|---|
| Airport | Trondheim Airport, Værnes (ENVA) |
| Time | Latitude | Longitude | Altitude | Speed | Heading |
|---|---|---|---|---|---|
| 2026-04-27 19:16 | 62.74592 | 7.26061 | 22 ft | 0 kts | 341° |
| 2026-04-27 19:26 | 62.74581 | 7.26069 | 22 ft | 2 kts | 341° |
| 2026-04-27 19:26 | 62.74560 | 7.26093 | 22 ft | 4 kts | 294° |
| 2026-04-27 19:27 | 62.74559 | 7.26145 | 25 ft | 4 kts | 252° |
| 2026-04-27 19:27 | 62.74561 | 7.26161 | 21 ft | 3 kts | 251° |
| 2026-04-27 19:29 | 62.74560 | 7.26155 | 21 ft | 1 kts | 251° |
| 2026-04-27 19:29 | 62.74548 | 7.26114 | 21 ft | 4 kts | 219° |
| 2026-04-27 19:29 | 62.74504 | 7.26134 | 19 ft | 10 kts | 165° |
| 2026-04-27 19:30 | 62.74446 | 7.26035 | 17 ft | 13 kts | 246° |
| 2026-04-27 19:30 | 62.74411 | 7.25822 | 18 ft | 17 kts | 251° |
| 2026-04-27 19:30 | 62.74370 | 7.25561 | 18 ft | 20 kts | 251° |
| 2026-04-27 19:30 | 62.74322 | 7.25255 | 16 ft | 23 kts | 251° |
| 2026-04-27 19:31 | 62.74270 | 7.24937 | 15 ft | 21 kts | 250° |
| 2026-04-27 19:31 | 62.74227 | 7.24725 | 13 ft | 11 kts | 277° |
| 2026-04-27 19:31 | 62.74252 | 7.24765 | 14 ft | 6 kts | 89° |
| 2026-04-27 19:31 | 62.74261 | 7.24870 | 14 ft | 9 kts | 69° |
| 2026-04-27 19:32 | 62.74341 | 7.25375 | 18 ft | 75 kts | 71° |
| 2026-04-27 19:32 | 62.74607 | 7.27005 | 30 ft | 150 kts | 71° |
| 2026-04-27 19:32 | 62.74935 | 7.29314 | 801 ft | 166 kts | 74° |
| 2026-04-27 19:32 | 62.75232 | 7.31999 | 1662 ft | 198 kts | 83° |
| 2026-04-27 19:33 | 62.75446 | 7.35003 | 2333 ft | 202 kts | 80° |
| 2026-04-27 19:33 | 62.75675 | 7.37007 | 2792 ft | 210 kts | 77° |
| 2026-04-27 19:33 | 62.76223 | 7.41380 | 3582 ft | 238 kts | 76° |
| 2026-04-27 19:33 | 62.76657 | 7.45007 | 4242 ft | 255 kts | 76° |
| 2026-04-27 19:34 | 62.77099 | 7.48821 | 5071 ft | 263 kts | 76° |
| 2026-04-27 19:34 | 62.77537 | 7.52669 | 5964 ft | 266 kts | 75° |
| 2026-04-27 19:34 | 62.78000 | 7.56597 | 6868 ft | 268 kts | 74° |
| 2026-04-27 19:34 | 62.78463 | 7.60566 | 7652 ft | 272 kts | 74° |
| 2026-04-27 19:35 | 62.78923 | 7.64610 | 8408 ft | 276 kts | 74° |
| 2026-04-27 19:35 | 62.79381 | 7.68722 | 9185 ft | 281 kts | 73° |
| 2026-04-27 19:35 | 62.79841 | 7.72898 | 10019 ft | 285 kts | 73° |
| 2026-04-27 19:35 | 62.80298 | 7.77244 | 10532 ft | 302 kts | 73° |
| 2026-04-27 19:36 | 62.80800 | 7.81830 | 10957 ft | 319 kts | 72° |
| 2026-04-27 19:36 | 62.81341 | 7.86676 | 11410 ft | 335 kts | 73° |
| 2026-04-27 19:36 | 62.81888 | 7.91691 | 12089 ft | 342 kts | 73° |
| 2026-04-27 19:36 | 62.82469 | 7.96742 | 12949 ft | 343 kts | 68° |
| 2026-04-27 19:37 | 62.83583 | 8.01284 | 13838 ft | 339 kts | 50° |
| 2026-04-27 19:37 | 62.85042 | 8.05353 | 14703 ft | 342 kts | 46° |
| 2026-04-27 19:37 | 62.86549 | 8.09435 | 15544 ft | 347 kts | 46° |
| 2026-04-27 19:37 | 62.88067 | 8.13585 | 16366 ft | 352 kts | 46° |
| 2026-04-27 19:38 | 62.89601 | 8.17812 | 17231 ft | 356 kts | 46° |
| 2026-04-27 19:38 | 62.91153 | 8.22100 | 18055 ft | 362 kts | 46° |
| 2026-04-27 19:38 | 62.92726 | 8.26448 | 18935 ft | 364 kts | 46° |
| 2026-04-27 19:38 | 62.94306 | 8.30822 | 19655 ft | 367 kts | 45° |
| 2026-04-27 19:39 | 62.95900 | 8.35240 | 20348 ft | 370 kts | 45° |
| 2026-04-27 19:39 | 62.97507 | 8.39693 | 21000 ft | 374 kts | 45° |
| 2026-04-27 19:39 | 62.99127 | 8.44181 | 21655 ft | 375 kts | 45° |
| 2026-04-27 19:39 | 63.00755 | 8.48703 | 22183 ft | 379 kts | 45° |
| 2026-04-27 19:40 | 63.02399 | 8.53262 | 22726 ft | 382 kts | 45° |
| 2026-04-27 19:40 | 63.04060 | 8.57865 | 23186 ft | 387 kts | 45° |
| 2026-04-27 19:40 | 63.05734 | 8.62510 | 23132 ft | 385 kts | 45° |
| 2026-04-27 19:40 | 63.07393 | 8.67127 | 23097 ft | 383 kts | 45° |
| 2026-04-27 19:41 | 63.09047 | 8.71734 | 23025 ft | 383 kts | 45° |
| 2026-04-27 19:41 | 63.10695 | 8.76338 | 23034 ft | 382 kts | 45° |
| 2026-04-27 19:41 | 63.12126 | 8.81345 | 23056 ft | 393 kts | 60° |
| 2026-04-27 19:41 | 63.12832 | 8.87272 | 23098 ft | 407 kts | 78° |
| 2026-04-27 19:42 | 63.12853 | 8.93619 | 22894 ft | 416 kts | 87° |
| 2026-04-27 19:42 | 63.12655 | 8.99999 | 22608 ft | 415 kts | 88° |
| 2026-04-27 19:42 | 63.12438 | 9.06357 | 22310 ft | 412 kts | 88° |
| 2026-04-27 19:42 | 63.12244 | 9.12650 | 22103 ft | 409 kts | 88° |
| 2026-04-27 19:43 | 63.12066 | 9.18919 | 21830 ft | 408 kts | 87° |
| 2026-04-27 19:43 | 63.11896 | 9.25145 | 21563 ft | 406 kts | 87° |
| 2026-04-27 19:43 | 63.11727 | 9.31343 | 21547 ft | 401 kts | 87° |
| 2026-04-27 19:43 | 63.11565 | 9.37578 | 20946 ft | 410 kts | 88° |
| 2026-04-27 19:44 | 63.11389 | 9.43826 | 20281 ft | 404 kts | 88° |
| 2026-04-27 19:44 | 63.11213 | 9.49971 | 19598 ft | 398 kts | 88° |
| 2026-04-27 19:44 | 63.11048 | 9.56019 | 18935 ft | 391 kts | 88° |
| 2026-04-27 19:44 | 63.10964 | 9.61943 | 18373 ft | 378 kts | 79° |
| 2026-04-27 19:45 | 63.11505 | 9.67472 | 17884 ft | 363 kts | 64° |
| 2026-04-27 19:45 | 63.12106 | 9.70905 | 17569 ft | 360 kts | 61° |
| 2026-04-27 19:45 | 63.13066 | 9.76020 | 17070 ft | 361 kts | 62° |
| 2026-04-27 19:45 | 63.14260 | 9.82849 | 16447 ft | 359 kts | 63° |
| 2026-04-27 19:46 | 63.15114 | 9.88014 | 15988 ft | 356 kts | 64° |
| 2026-04-27 19:46 | 63.15945 | 9.93153 | 15506 ft | 352 kts | 64° |
| 2026-04-27 19:46 | 63.16760 | 9.98239 | 15039 ft | 350 kts | 64° |
| 2026-04-27 19:46 | 63.17307 | 10.01662 | 14726 ft | 345 kts | 64° |
| 2026-04-27 19:47 | 63.18091 | 10.06603 | 14261 ft | 335 kts | 64° |
| 2026-04-27 19:47 | 63.18847 | 10.11389 | 13815 ft | 324 kts | 64° |
| 2026-04-27 19:47 | 63.19580 | 10.16020 | 13392 ft | 314 kts | 64° |
| 2026-04-27 19:47 | 63.20291 | 10.20519 | 12989 ft | 305 kts | 64° |
| 2026-04-27 19:48 | 63.20973 | 10.24848 | 12581 ft | 298 kts | 64° |
| 2026-04-27 19:48 | 63.21647 | 10.29141 | 12196 ft | 292 kts | 64° |
| 2026-04-27 19:48 | 63.22306 | 10.33352 | 11815 ft | 286 kts | 64° |
| 2026-04-27 19:48 | 63.22955 | 10.37492 | 11434 ft | 283 kts | 64° |
| 2026-04-27 19:49 | 63.23595 | 10.41598 | 11072 ft | 281 kts | 64° |
| 2026-04-27 19:49 | 63.24233 | 10.45698 | 10700 ft | 281 kts | 65° |
| 2026-04-27 19:49 | 63.24870 | 10.49810 | 10308 ft | 282 kts | 65° |
| 2026-04-27 19:49 | 63.25503 | 10.53907 | 9947 ft | 279 kts | 65° |
| 2026-04-27 19:50 | 63.26128 | 10.57969 | 9557 ft | 278 kts | 65° |
| 2026-04-27 19:50 | 63.26751 | 10.62007 | 9221 ft | 275 kts | 66° |
| 2026-04-27 19:50 | 63.27366 | 10.66026 | 8830 ft | 274 kts | 66° |
| 2026-04-27 19:50 | 63.27977 | 10.70004 | 8491 ft | 271 kts | 65° |
| 2026-04-27 19:51 | 63.28584 | 10.73948 | 8118 ft | 268 kts | 66° |
| 2026-04-27 19:51 | 63.29164 | 10.77825 | 7999 ft | 259 kts | 66° |
| 2026-04-27 19:51 | 63.29748 | 10.81703 | 7410 ft | 270 kts | 66° |
| 2026-04-27 19:51 | 63.30343 | 10.85637 | 7026 ft | 266 kts | 67° |
| 2026-04-27 19:52 | 63.30921 | 10.89497 | 6669 ft | 261 kts | 67° |
| 2026-04-27 19:52 | 63.31492 | 10.93289 | 6335 ft | 256 kts | 67° |
| 2026-04-27 19:52 | 63.32054 | 10.97024 | 5989 ft | 253 kts | 68° |
| 2026-04-27 19:52 | 63.32605 | 11.00705 | 5646 ft | 248 kts | 68° |
| 2026-04-27 19:53 | 63.33647 | 11.07703 | 5023 ft | 229 kts | 68° |
| 2026-04-27 19:53 | 63.34216 | 11.10941 | 4720 ft | 219 kts | 58° |
| 2026-04-27 19:53 | 63.35038 | 11.13658 | 4482 ft | 205 kts | 50° |
| 2026-04-27 19:54 | 63.35880 | 11.16106 | 4207 ft | 192 kts | 48° |
| 2026-04-27 19:54 | 63.36769 | 11.18148 | 3958 ft | 175 kts | 38° |
| 2026-04-27 19:54 | 63.37673 | 11.19596 | 3889 ft | 154 kts | 29° |
| 2026-04-27 19:54 | 63.38640 | 11.20628 | 3536 ft | 151 kts | 18° |
| 2026-04-27 19:55 | 63.39630 | 11.21172 | 3304 ft | 143 kts | 8° |
| 2026-04-27 19:55 | 63.40608 | 11.21290 | 3139 ft | 140 kts | 359° |
| 2026-04-27 19:55 | 63.41578 | 11.21027 | 2983 ft | 141 kts | 348° |
| 2026-04-27 19:55 | 63.42518 | 11.20338 | 2843 ft | 144 kts | 338° |
| 2026-04-27 19:56 | 63.43392 | 11.19269 | 2645 ft | 146 kts | 328° |
| 2026-04-27 19:56 | 63.44180 | 11.17816 | 2391 ft | 143 kts | 317° |
| 2026-04-27 19:56 | 63.44794 | 11.16128 | 2181 ft | 137 kts | 307° |
| 2026-04-27 19:56 | 63.45259 | 11.14326 | 1976 ft | 133 kts | 299° |
| 2026-04-27 19:57 | 63.45615 | 11.12423 | 1747 ft | 133 kts | 292° |
| 2026-04-27 19:57 | 63.45817 | 11.10439 | 1521 ft | 131 kts | 276° |
| 2026-04-27 19:57 | 63.45795 | 11.08408 | 1305 ft | 130 kts | 267° |
| 2026-04-27 19:57 | 63.45730 | 11.06411 | 1068 ft | 128 kts | 271° |
| 2026-04-27 19:58 | 63.45733 | 11.04462 | 947 ft | 125 kts | 272° |
| 2026-04-27 19:58 | 63.45723 | 11.02508 | 870 ft | 126 kts | 271° |
| 2026-04-27 19:58 | 63.45725 | 11.00539 | 774 ft | 127 kts | 273° |
| 2026-04-27 19:58 | 63.45738 | 10.98525 | 593 ft | 130 kts | 272° |
| 2026-04-27 19:59 | 63.45744 | 10.96512 | 370 ft | 129 kts | 272° |
| 2026-04-27 19:59 | 63.45752 | 10.94512 | 126 ft | 128 kts | 272° |
| 2026-04-27 19:59 | 63.45761 | 10.92617 | 44 ft | 113 kts | 270° |
| 2026-04-27 19:59 | 63.45762 | 10.91074 | 34 ft | 78 kts | 270° |
| 2026-04-27 20:00 | 63.45764 | 10.90087 | 30 ft | 55 kts | 270° |
| 2026-04-27 20:00 | 63.45764 | 10.89412 | 27 ft | 32 kts | 269° |
| 2026-04-27 20:00 | 63.45655 | 10.89267 | 27 ft | 17 kts | 176° |
| 2026-04-27 20:00 | 63.45600 | 10.89457 | 27 ft | 18 kts | 91° |
| 2026-04-27 20:01 | 63.45599 | 10.89747 | 28 ft | 20 kts | 90° |
| 2026-04-27 20:01 | 63.45599 | 10.90062 | 30 ft | 21 kts | 89° |
| 2026-04-27 20:01 | 63.45598 | 10.90396 | 31 ft | 22 kts | 92° |
| 2026-04-27 20:01 | 63.45597 | 10.90747 | 33 ft | 23 kts | 90° |
| 2026-04-27 20:02 | 63.45595 | 10.91074 | 34 ft | 14 kts | 96° |
| 2026-04-27 20:02 | 63.45556 | 10.91259 | 35 ft | 14 kts | 92° |
| 2026-04-27 20:02 | 63.45555 | 10.91471 | 37 ft | 13 kts | 90° |
| 2026-04-27 20:02 | 63.45542 | 10.91576 | 36 ft | 4 kts | 148° |
| 2026-04-27 20:03 | 63.45506 | 10.91582 | 37 ft | 3 kts | 179° |
| 2026-04-27 20:03 | 63.45497 | 10.91582 | 36 ft | 0 kts | 179° |